createdAt,value
2019-05-14T00:00:21.758Z,99.90
2019-05-14T00:02:52.074Z,99.90
2019-05-14T00:05:21.541Z,99.90
2019-05-14T00:07:52.161Z,99.90
2019-05-14T00:10:41.231Z,99.90
2019-05-14T00:13:11.879Z,99.90
2019-05-14T00:15:41.421Z,99.90
2019-05-14T00:18:11.787Z,99.90
2019-05-14T00:20:41.946Z,99.90
2019-05-14T00:23:12.196Z,99.90
2019-05-14T00:25:41.913Z,99.90
2019-05-14T00:28:31.716Z,99.90
2019-05-14T00:31:02.976Z,99.90
2019-05-14T00:33:51.395Z,99.90
2019-05-14T00:36:21.474Z,99.90
2019-05-14T00:38:51.317Z,99.90
2019-05-14T00:41:21.558Z,99.90
2019-05-14T00:44:09.650Z,99.90
2019-05-14T00:46:38.210Z,99.90
2019-05-14T00:49:06.942Z,99.90
2019-05-14T00:51:35.674Z,99.90
2019-05-14T00:54:05.799Z,99.90
2019-05-14T00:56:34.421Z,99.90
2019-05-14T00:59:03.064Z,99.90
2019-05-14T01:01:31.921Z,99.90
2019-05-14T01:04:22.108Z,99.90
2019-05-14T01:07:11.675Z,99.90
2019-05-14T01:09:41.837Z,99.90
2019-05-14T01:12:12.197Z,99.90
2019-05-14T01:14:42.473Z,99.90
2019-05-14T01:17:31.489Z,99.90
2019-05-14T01:20:02.779Z,99.90
2019-05-14T01:22:31.654Z,99.90
2019-05-14T01:25:01.568Z,99.90
2019-05-14T01:27:31.736Z,99.90
2019-05-14T01:30:02.083Z,99.90
2019-05-14T01:32:31.498Z,99.90
2019-05-14T01:35:01.427Z,99.90
2019-05-14T01:37:31.649Z,99.90
2019-05-14T01:40:21.725Z,99.90
2019-05-14T01:42:52.174Z,99.90
2019-05-14T01:45:27.712Z,99.90
2019-05-14T01:47:52.050Z,99.90
2019-05-14T01:50:21.536Z,99.90
2019-05-14T01:53:11.523Z,99.90
2019-05-14T01:56:01.579Z,99.90
2019-05-14T01:58:31.138Z,99.90
2019-05-14T02:01:01.975Z,99.90
2019-05-14T02:03:32.320Z,99.90
2019-05-14T02:06:01.404Z,99.90
2019-05-14T02:08:32.322Z,99.90
2019-05-14T02:11:01.628Z,99.90
2019-05-14T02:13:51.721Z,99.90
2019-05-14T02:16:32.300Z,99.90
2019-05-14T02:19:01.427Z,99.90
2019-05-14T02:21:51.409Z,99.90
2019-05-14T02:24:21.836Z,99.90
2019-05-14T02:26:51.456Z,99.90
2019-05-14T02:29:21.426Z,99.90
2019-05-14T02:31:50.624Z,99.90
2019-05-14T02:34:19.940Z,99.90
2019-05-14T02:37:09.281Z,99.90
2019-05-14T02:39:59.633Z,99.90
2019-05-14T02:42:29.000Z,99.90
2019-05-14T02:44:59.251Z,99.90
2019-05-14T02:47:29.814Z,99.90
2019-05-14T02:49:58.966Z,99.90
2019-05-14T02:52:29.311Z,99.90
2019-05-14T02:54:59.752Z,99.90
2019-05-14T02:57:30.394Z,99.90
2019-05-14T02:59:59.739Z,99.90
2019-05-14T03:02:29.751Z,99.90
2019-05-14T03:04:59.215Z,99.90
2019-05-14T03:07:29.845Z,99.90
2019-05-14T03:09:59.356Z,99.90
2019-05-14T03:12:30.169Z,99.90
2019-05-14T03:14:58.957Z,99.90
2019-05-14T03:17:30.049Z,99.90
2019-05-14T03:20:19.669Z,99.90
2019-05-14T03:23:01.727Z,99.90
2019-05-14T03:25:39.999Z,99.90
2019-05-14T03:28:09.226Z,99.90
2019-05-14T03:30:42.323Z,99.90
2019-05-14T03:33:13.212Z,99.90
2019-05-14T03:35:44.473Z,99.90
2019-05-14T03:38:09.658Z,99.90
2019-05-14T03:40:40.018Z,99.90
2019-05-14T03:43:09.093Z,99.90
2019-05-14T03:45:39.166Z,99.90
2019-05-14T03:48:10.409Z,99.90
2019-05-14T03:50:39.046Z,99.90
2019-05-14T03:53:10.076Z,99.90
2019-05-14T03:55:40.314Z,99.90
2019-05-14T03:58:09.930Z,99.90
2019-05-14T04:01:00.598Z,99.90
2019-05-14T04:03:31.555Z,99.90
2019-05-14T04:06:02.202Z,99.90
2019-05-14T04:08:32.146Z,99.90
2019-05-14T04:11:01.935Z,99.90
2019-05-14T04:13:51.387Z,99.90
2019-05-14T04:16:40.084Z,99.90
2019-05-14T04:19:11.725Z,99.90
2019-05-14T04:21:41.563Z,99.90
2019-05-14T04:24:13.196Z,99.90
2019-05-14T04:26:58.332Z,99.90
2019-05-14T04:29:14.110Z,99.90
2019-05-14T04:31:44.475Z,99.90
2019-05-14T04:34:14.307Z,99.90
2019-05-14T04:36:43.404Z,99.90
2019-05-14T04:39:12.069Z,99.90
2019-05-14T04:41:52.992Z,99.90
2019-05-14T04:44:21.622Z,99.90
2019-05-14T04:46:50.343Z,99.90
2019-05-14T04:49:20.055Z,99.90
2019-05-14T04:51:50.209Z,99.90
2019-05-14T04:54:19.707Z,99.90
2019-05-14T04:56:51.004Z,99.90
2019-05-14T04:59:19.938Z,99.90
2019-05-14T05:01:50.041Z,99.90
2019-05-14T05:04:20.190Z,99.90
2019-05-14T05:06:49.952Z,99.90
2019-05-14T05:09:20.063Z,99.90
2019-05-14T05:11:49.826Z,99.90
2019-05-14T05:14:19.233Z,99.90
2019-05-14T05:16:49.033Z,99.90
2019-05-14T05:19:19.608Z,99.90
2019-05-14T05:21:49.964Z,99.90
2019-05-14T05:24:18.709Z,99.90
2019-05-14T05:27:09.100Z,99.90
2019-05-14T05:29:39.050Z,99.90
2019-05-14T05:32:08.620Z,99.90
2019-05-14T05:34:38.779Z,99.90
2019-05-14T05:37:08.578Z,99.90
2019-05-14T05:39:38.683Z,99.90
2019-05-14T05:42:09.147Z,99.90
2019-05-14T05:44:39.347Z,99.90
2019-05-14T05:47:09.171Z,99.40
2019-05-14T05:49:38.254Z,98.00
2019-05-14T05:52:08.556Z,97.50
2019-05-14T05:54:58.357Z,97.30
2019-05-14T05:57:28.408Z,96.10
2019-05-14T05:59:58.882Z,97.90
2019-05-14T06:02:31.375Z,99.40
2019-05-14T06:05:00.508Z,99.10
2019-05-14T06:07:29.315Z,99.90
2019-05-14T06:10:18.727Z,99.90
2019-05-14T06:13:08.844Z,99.90
2019-05-14T06:15:58.875Z,99.90
2019-05-14T06:18:39.397Z,99.90
2019-05-14T06:21:09.175Z,99.90
2019-05-14T06:23:42.497Z,99.90
2019-05-14T06:26:30.600Z,99.90
2019-05-14T06:28:59.865Z,99.90
2019-05-14T06:31:29.178Z,99.90
2019-05-14T06:34:18.670Z,99.90
2019-05-14T06:36:48.638Z,99.90
2019-05-14T06:39:18.238Z,99.90
2019-05-14T06:41:48.997Z,99.90
2019-05-14T06:44:18.742Z,99.90
2019-05-14T06:46:48.625Z,99.90
2019-05-14T06:49:18.316Z,99.90
2019-05-14T06:51:48.977Z,99.90
2019-05-14T06:54:19.658Z,99.90
2019-05-14T06:56:49.212Z,99.90
2019-05-14T06:59:18.907Z,99.90
2019-05-14T07:01:48.983Z,99.90
2019-05-14T07:04:18.305Z,99.90
2019-05-14T07:06:48.500Z,99.90
2019-05-14T07:09:21.530Z,99.90
2019-05-14T07:11:50.173Z,99.90
2019-05-14T07:14:20.302Z,99.90
2019-05-14T07:16:48.989Z,99.90
2019-05-14T07:19:19.215Z,99.90
2019-05-14T07:21:49.221Z,99.90
2019-05-14T07:24:19.613Z,99.90
2019-05-14T07:26:49.375Z,99.90
2019-05-14T07:29:18.650Z,99.90
2019-05-14T07:31:48.964Z,99.90
2019-05-14T07:34:19.201Z,99.90
2019-05-14T07:36:49.116Z,99.90
2019-05-14T07:39:18.688Z,99.90
2019-05-14T07:41:48.324Z,99.90
2019-05-14T07:44:18.305Z,99.90
2019-05-14T07:47:08.206Z,99.90
2019-05-14T07:49:58.125Z,99.90
2019-05-14T07:52:45.989Z,99.90
2019-05-14T07:55:18.642Z,99.90
2019-05-14T07:57:48.078Z,99.90
2019-05-14T08:00:19.182Z,99.90
2019-05-14T08:03:11.221Z,99.90
2019-05-14T08:05:40.212Z,99.90
2019-05-14T08:08:08.914Z,99.90
2019-05-14T08:10:39.198Z,99.90
2019-05-14T08:13:08.489Z,99.90
2019-05-14T08:15:38.687Z,99.90
2019-05-14T08:18:08.096Z,99.90
2019-05-14T08:20:38.021Z,99.90
2019-05-14T08:23:09.014Z,99.90
2019-05-14T08:25:38.998Z,99.90
2019-05-14T08:28:08.144Z,99.90
2019-05-14T08:30:38.946Z,99.90
2019-05-14T08:33:08.921Z,99.90
2019-05-14T08:35:39.535Z,99.90
2019-05-14T08:38:11.731Z,99.90
2019-05-14T08:40:38.311Z,99.90
2019-05-14T08:43:08.644Z,99.90
2019-05-14T08:45:38.911Z,99.90
2019-05-14T08:48:29.487Z,99.90
2019-05-14T08:50:58.790Z,99.90
2019-05-14T08:53:28.793Z,99.90
2019-05-14T08:55:58.842Z,99.90
2019-05-14T08:58:30.122Z,99.90
2019-05-14T09:00:58.841Z,99.90
2019-05-14T09:03:28.841Z,99.90
2019-05-14T09:06:00.553Z,99.90
2019-05-14T09:08:28.554Z,99.90
2019-05-14T09:10:58.964Z,99.90
2019-05-14T09:13:28.907Z,99.90
2019-05-14T09:15:58.402Z,99.90
2019-05-14T09:18:29.097Z,99.90
2019-05-14T09:20:58.345Z,99.90
2019-05-14T09:23:28.586Z,99.90
2019-05-14T09:25:58.799Z,99.90
2019-05-14T09:28:50.672Z,99.60
2019-05-14T09:31:25.755Z,99.90
2019-05-14T09:33:59.695Z,99.90
2019-05-14T09:36:29.079Z,99.30
2019-05-14T09:38:58.352Z,99.10
2019-05-14T09:41:28.625Z,99.20
2019-05-14T09:43:58.751Z,99.90
2019-05-14T09:46:46.908Z,99.10
2019-05-14T09:49:18.694Z,99.90
2019-05-14T09:51:48.877Z,99.20
2019-05-14T09:54:19.378Z,98.40
2019-05-14T09:56:48.547Z,98.60
2019-05-14T09:59:18.576Z,98.00
2019-05-14T10:01:50.670Z,97.50
2019-05-14T10:04:17.743Z,97.20
2019-05-14T10:06:48.484Z,96.70
2019-05-14T10:09:18.384Z,94.90
2019-05-14T10:12:08.724Z,95.80
2019-05-14T10:14:39.028Z,94.80
2019-05-14T10:17:28.829Z,95.70
2019-05-14T10:19:59.836Z,94.80
2019-05-14T10:22:28.658Z,95.00
2019-05-14T10:24:58.231Z,92.80
2019-05-14T10:27:28.389Z,93.70
2019-05-14T10:29:58.886Z,94.70
2019-05-14T10:32:29.490Z,93.70
2019-05-14T10:34:58.958Z,92.30
2019-05-14T10:37:28.771Z,92.50
2019-05-14T10:39:58.596Z,93.30
2019-05-14T10:42:29.368Z,92.70
2019-05-14T10:44:58.677Z,93.10
2019-05-14T10:47:29.189Z,92.80
2019-05-14T10:50:00.087Z,92.00
2019-05-14T10:52:28.988Z,91.30
2019-05-14T10:54:59.043Z,91.90
2019-05-14T10:57:51.374Z,92.80
2019-05-14T11:00:19.770Z,91.90
2019-05-14T11:02:56.664Z,93.10
2019-05-14T11:05:28.005Z,92.40
2019-05-14T11:07:55.746Z,91.00
2019-05-14T11:10:24.453Z,91.40
2019-05-14T11:12:55.047Z,91.50
2019-05-14T11:15:23.421Z,92.00
2019-05-14T11:17:52.099Z,91.30
2019-05-14T11:20:22.386Z,89.30
2019-05-14T11:22:50.984Z,90.10
2019-05-14T11:25:19.822Z,90.20
2019-05-14T11:27:49.379Z,90.70
2019-05-14T11:30:19.278Z,91.20
2019-05-14T11:32:49.320Z,91.40
2019-05-14T11:35:19.173Z,92.10
2019-05-14T11:37:48.155Z,91.50
2019-05-14T11:40:18.974Z,91.30
2019-05-14T11:42:49.559Z,90.80
2019-05-14T11:45:17.881Z,90.10
2019-05-14T11:48:05.879Z,91.50
2019-05-14T11:50:34.519Z,91.20
2019-05-14T11:53:04.713Z,91.60
2019-05-14T11:55:52.689Z,92.10
2019-05-14T11:58:21.609Z,91.90
2019-05-14T12:00:50.405Z,89.90
2019-05-14T12:03:19.876Z,90.00
2019-05-14T12:05:49.558Z,90.00
2019-05-14T12:08:18.722Z,90.10
2019-05-14T12:10:47.610Z,89.10
2019-05-14T12:13:19.643Z,88.30
2019-05-14T12:15:51.733Z,87.50
2019-05-14T12:18:24.804Z,87.90
2019-05-14T12:20:53.652Z,87.80
2019-05-14T12:23:22.388Z,89.50
2019-05-14T12:26:10.302Z,89.20
2019-05-14T12:28:41.502Z,88.50
2019-05-14T12:31:12.416Z,88.10
2019-05-14T12:33:41.083Z,86.30
2019-05-14T12:36:10.277Z,85.80
2019-05-14T12:38:39.196Z,88.60
2019-05-14T12:41:09.165Z,86.40
2019-05-14T12:43:39.624Z,86.10
2019-05-14T12:46:10.364Z,85.20
2019-05-14T12:48:39.254Z,83.80
2019-05-14T12:51:08.960Z,84.70
2019-05-14T12:53:39.466Z,85.80
2019-05-14T12:56:08.683Z,82.80
2019-05-14T12:58:44.655Z,82.90
2019-05-14T13:01:08.914Z,85.50
2019-05-14T13:03:38.173Z,84.20
2019-05-14T13:06:09.689Z,84.50
2019-05-14T13:08:38.891Z,82.20
2019-05-14T13:11:09.839Z,81.80
2019-05-14T13:13:58.798Z,81.90
2019-05-14T13:16:28.464Z,81.70
2019-05-14T13:18:59.724Z,84.00
2019-05-14T13:21:28.961Z,82.20
2019-05-14T13:23:58.227Z,82.70
2019-05-14T13:26:29.634Z,84.10
2019-05-14T13:28:58.892Z,84.00
2019-05-14T13:31:49.570Z,82.10
2019-05-14T13:34:19.490Z,82.70
2019-05-14T13:36:48.861Z,82.00
2019-05-14T13:39:19.380Z,84.80
2019-05-14T13:41:48.678Z,84.30
2019-05-14T13:44:24.504Z,85.70
2019-05-14T13:46:48.662Z,86.30
2019-05-14T13:49:19.046Z,85.80
2019-05-14T13:51:49.065Z,84.70
2019-05-14T13:54:19.252Z,84.50
2019-05-14T13:57:11.575Z,81.60
2019-05-14T13:59:59.702Z,82.60
2019-05-14T14:02:31.302Z,83.20
2019-05-14T14:04:59.040Z,81.60
2019-05-14T14:07:27.756Z,84.40
2019-05-14T14:09:58.975Z,82.00
2019-05-14T14:12:31.887Z,83.00
2019-05-14T14:14:58.658Z,83.10
2019-05-14T14:17:29.273Z,83.00
2019-05-14T14:20:19.349Z,85.80
2019-05-14T14:22:49.061Z,80.70
2019-05-14T14:25:17.872Z,82.70
2019-05-14T14:27:48.723Z,83.40
2019-05-14T14:30:19.521Z,81.60
2019-05-14T14:32:49.537Z,81.90
2019-05-14T14:35:23.616Z,81.40
2019-05-14T14:37:49.353Z,81.20
2019-05-14T14:40:21.939Z,83.00
2019-05-14T14:42:49.194Z,80.60
2019-05-14T14:45:21.518Z,79.60
2019-05-14T14:47:49.748Z,79.90
2019-05-14T14:50:19.523Z,81.10
2019-05-14T14:52:49.487Z,81.40
2019-05-14T14:55:19.279Z,81.50
2019-05-14T14:57:53.922Z,81.30
2019-05-14T15:00:19.469Z,79.40
2019-05-14T15:02:49.527Z,78.20
2019-05-14T15:05:19.927Z,78.40
2019-05-14T15:07:49.970Z,79.10
2019-05-14T15:10:19.354Z,80.00
2019-05-14T15:12:49.706Z,79.20
2019-05-14T15:15:18.746Z,79.60
2019-05-14T15:17:48.309Z,80.10
2019-05-14T15:20:19.544Z,81.00
2019-05-14T15:22:49.128Z,81.80
2019-05-14T15:25:18.547Z,79.90
2019-05-14T15:27:49.144Z,80.70
2019-05-14T15:30:39.740Z,80.20
2019-05-14T15:33:09.284Z,79.60
2019-05-14T15:35:37.981Z,79.00
2019-05-14T15:38:11.119Z,79.90
2019-05-14T15:40:39.766Z,81.50
2019-05-14T15:43:09.821Z,82.10
2019-05-14T15:45:37.917Z,80.40
2019-05-14T15:48:08.927Z,80.30
2019-05-14T15:50:38.895Z,81.60
2019-05-14T15:53:10.934Z,81.60
2019-05-14T15:55:38.358Z,82.70
2019-05-14T15:58:08.780Z,82.70
2019-05-14T16:00:38.504Z,82.60
2019-05-14T16:03:08.585Z,81.50
2019-05-14T16:05:39.264Z,81.10
2019-05-14T16:08:08.284Z,78.30
2019-05-14T16:10:39.617Z,78.00
2019-05-14T16:13:08.808Z,79.40
2019-05-14T16:15:38.970Z,80.20
2019-05-14T16:18:14.988Z,80.10
2019-05-14T16:20:39.245Z,79.80
2019-05-14T16:23:10.915Z,81.10
2019-05-14T16:25:38.489Z,80.90
2019-05-14T16:28:08.768Z,81.30
2019-05-14T16:30:39.750Z,82.30
2019-05-14T16:33:09.297Z,81.50
2019-05-14T16:35:39.257Z,81.00
2019-05-14T16:38:08.471Z,81.80
2019-05-14T16:40:39.487Z,81.90
2019-05-14T16:43:07.447Z,81.30
2019-05-14T16:45:36.148Z,81.80
2019-05-14T16:48:04.886Z,80.50
2019-05-14T16:50:33.442Z,80.70
2019-05-14T16:53:21.450Z,80.90
2019-05-14T16:55:50.082Z,80.30
2019-05-14T16:58:19.642Z,79.40
2019-05-14T17:00:48.576Z,79.40
2019-05-14T17:03:19.093Z,79.90
2019-05-14T17:05:48.739Z,80.90
2019-05-14T17:08:19.086Z,81.70
2019-05-14T17:10:48.331Z,82.50
2019-05-14T17:13:17.952Z,82.10
2019-05-14T17:16:08.325Z,83.30
2019-05-14T17:18:36.303Z,83.60
2019-05-14T17:21:05.158Z,82.80
2019-05-14T17:23:33.861Z,84.10
2019-05-14T17:26:02.522Z,81.70
2019-05-14T17:28:31.159Z,82.00
2019-05-14T17:30:59.815Z,81.80
2019-05-14T17:33:29.145Z,82.50
2019-05-14T17:35:58.618Z,81.70
2019-05-14T17:38:29.197Z,81.60
2019-05-14T17:40:59.745Z,81.10
2019-05-14T17:43:28.509Z,81.60
2019-05-14T17:45:58.761Z,81.50
2019-05-14T17:48:28.563Z,82.20
2019-05-14T17:50:59.778Z,82.50
2019-05-14T17:53:48.114Z,83.70
2019-05-14T17:56:19.142Z,83.80
2019-05-14T17:58:48.970Z,83.80
2019-05-14T18:01:18.358Z,84.40
2019-05-14T18:03:53.113Z,84.90
2019-05-14T18:06:21.780Z,85.30
2019-05-14T18:08:50.440Z,85.90
2019-05-14T18:11:19.283Z,85.40
2019-05-14T18:13:48.598Z,85.50
2019-05-14T18:16:19.244Z,85.90
2019-05-14T18:18:49.481Z,85.80
2019-05-14T18:21:18.617Z,86.20
2019-05-14T18:23:49.234Z,86.60
2019-05-14T18:26:18.924Z,86.20
2019-05-14T18:28:47.770Z,87.30
2019-05-14T18:31:19.607Z,88.40
2019-05-14T18:33:48.908Z,88.10
2019-05-14T18:36:19.089Z,88.50
2019-05-14T18:38:49.375Z,90.00
2019-05-14T18:41:18.845Z,90.00
2019-05-14T18:43:47.860Z,90.40
2019-05-14T18:46:35.904Z,90.30
2019-05-14T18:49:04.662Z,90.70
2019-05-14T18:51:52.562Z,90.50
2019-05-14T18:54:21.588Z,90.90
2019-05-14T18:56:50.554Z,91.20
2019-05-14T18:59:39.063Z,91.80
2019-05-14T19:02:08.659Z,91.90
2019-05-14T19:04:38.165Z,92.70
2019-05-14T19:07:28.497Z,92.70
2019-05-14T19:10:15.872Z,92.70
2019-05-14T19:12:47.144Z,93.60
2019-05-14T19:15:15.621Z,94.50
2019-05-14T19:17:44.261Z,92.90
2019-05-14T19:20:13.290Z,94.40
2019-05-14T19:22:41.864Z,96.10
2019-05-14T19:25:10.681Z,95.20
2019-05-14T19:27:39.241Z,95.50
2019-05-14T19:30:09.542Z,95.70
2019-05-14T19:32:39.185Z,97.50
2019-05-14T19:35:08.751Z,97.10
2019-05-14T19:37:39.010Z,97.30
2019-05-14T19:40:09.254Z,98.10
2019-05-14T19:42:39.123Z,99.90
2019-05-14T19:45:08.672Z,99.90
2019-05-14T19:47:39.920Z,99.90
2019-05-14T19:50:08.983Z,99.90
2019-05-14T19:52:39.358Z,99.90
2019-05-14T19:55:09.771Z,99.90
2019-05-14T19:57:39.877Z,99.90
2019-05-14T20:00:09.342Z,99.90
2019-05-14T20:02:38.789Z,99.90
2019-05-14T20:05:09.073Z,99.90
2019-05-14T20:07:38.861Z,99.90
2019-05-14T20:10:08.731Z,99.90
2019-05-14T20:12:39.126Z,99.90
2019-05-14T20:15:09.500Z,99.90
2019-05-14T20:17:38.582Z,99.90
2019-05-14T20:20:09.276Z,99.90
2019-05-14T20:22:58.977Z,99.90
2019-05-14T20:25:28.393Z,99.90
2019-05-14T20:27:58.721Z,99.90
2019-05-14T20:30:29.435Z,99.90
2019-05-14T20:32:59.259Z,99.90
2019-05-14T20:35:34.321Z,99.90
2019-05-14T20:37:58.643Z,99.90
2019-05-14T20:40:48.750Z,99.90
2019-05-14T20:43:18.481Z,99.90
2019-05-14T20:45:48.937Z,99.90
2019-05-14T20:48:18.891Z,99.90
2019-05-14T20:50:47.890Z,99.90
2019-05-14T20:53:18.499Z,99.90
2019-05-14T20:55:46.900Z,99.90
2019-05-14T20:58:15.509Z,99.90
2019-05-14T21:01:03.505Z,99.90
2019-05-14T21:03:32.061Z,99.90
2019-05-14T21:06:00.721Z,99.90
2019-05-14T21:08:29.351Z,99.90
2019-05-14T21:11:19.106Z,99.90
2019-05-14T21:13:50.012Z,99.90
2019-05-14T21:16:18.294Z,99.90
2019-05-14T21:19:08.445Z,99.90
2019-05-14T21:21:38.359Z,99.90
2019-05-14T21:24:08.676Z,99.90
2019-05-14T21:26:58.338Z,99.90
2019-05-14T21:29:30.383Z,99.90
2019-05-14T21:31:56.890Z,99.90
2019-05-14T21:34:25.517Z,99.90
2019-05-14T21:36:54.105Z,99.90
2019-05-14T21:39:22.806Z,99.90
2019-05-14T21:41:51.397Z,99.90
2019-05-14T21:44:39.373Z,99.90
2019-05-14T21:47:08.318Z,99.90
2019-05-14T21:49:39.032Z,99.90
2019-05-14T21:52:28.837Z,99.90
2019-05-14T21:54:58.653Z,99.90
2019-05-14T21:57:28.410Z,99.90
2019-05-14T21:59:58.829Z,99.90
2019-05-14T22:02:30.493Z,99.90
2019-05-14T22:05:01.495Z,99.90
2019-05-14T22:07:48.965Z,99.90
2019-05-14T22:10:39.287Z,99.90
2019-05-14T22:13:07.250Z,99.90
2019-05-14T22:15:38.642Z,99.90
2019-05-14T22:18:16.559Z,99.90
2019-05-14T22:20:38.506Z,99.90
2019-05-14T22:23:08.900Z,99.90
2019-05-14T22:25:39.541Z,99.90
2019-05-14T22:28:15.155Z,99.90
2019-05-14T22:30:38.835Z,99.90
2019-05-14T22:33:08.678Z,99.90
2019-05-14T22:35:58.078Z,99.90
2019-05-14T22:38:29.193Z,99.90
2019-05-14T22:40:59.251Z,99.90
2019-05-14T22:43:28.833Z,99.90
2019-05-14T22:45:59.101Z,99.90
2019-05-14T22:48:27.787Z,99.90
2019-05-14T22:50:58.974Z,99.90
2019-05-14T22:53:27.845Z,99.90
2019-05-14T22:55:58.624Z,99.90
2019-05-14T22:58:28.826Z,99.90
2019-05-14T23:01:13.524Z,99.90
2019-05-14T23:03:28.938Z,99.90
2019-05-14T23:06:18.794Z,99.90
2019-05-14T23:08:48.725Z,99.90
2019-05-14T23:11:19.485Z,99.90
2019-05-14T23:13:48.777Z,99.90
2019-05-14T23:16:41.231Z,99.90
2019-05-14T23:19:08.034Z,99.90
2019-05-14T23:21:38.824Z,99.90
2019-05-14T23:24:09.145Z,99.90
2019-05-14T23:26:37.295Z,99.90
2019-05-14T23:29:25.305Z,99.90
2019-05-14T23:31:53.865Z,99.90
2019-05-14T23:34:41.857Z,99.90
2019-05-14T23:37:10.493Z,99.90
2019-05-14T23:39:39.321Z,99.90
2019-05-14T23:42:09.102Z,99.90
2019-05-14T23:44:38.208Z,99.90
2019-05-14T23:47:08.308Z,99.90
2019-05-14T23:49:38.963Z,99.90
2019-05-14T23:52:07.291Z,99.90
2019-05-14T23:54:35.856Z,99.90
2019-05-14T23:57:04.482Z,99.90
2019-05-14T23:59:33.144Z,99.90
